createdAt,value
2022-10-08T00:02:29.654Z,129.50
2022-10-08T00:05:01.183Z,125.50
2022-10-08T00:07:33.096Z,116.10
2022-10-08T00:10:06.411Z,114.50
2022-10-08T00:12:42.841Z,117.00
2022-10-08T00:15:14.560Z,118.30
2022-10-08T00:17:46.124Z,109.80
2022-10-08T00:20:19.405Z,114.90
2022-10-08T00:22:53.395Z,98.90
2022-10-08T00:25:25.036Z,92.60
2022-10-08T00:27:57.203Z,83.50
2022-10-08T00:30:28.723Z,74.50
2022-10-08T00:33:04.173Z,88.30
2022-10-08T00:35:40.907Z,82.40
2022-10-08T00:38:12.562Z,82.40
2022-10-08T00:40:47.415Z,88.70
2022-10-08T00:43:25.307Z,87.60
2022-10-08T00:45:57.862Z,94.70
2022-10-08T00:48:30.185Z,87.40
2022-10-08T00:51:02.654Z,87.20
2022-10-08T00:53:36.167Z,89.90
2022-10-08T00:56:08.756Z,79.90
2022-10-08T00:58:41.217Z,80.00
2022-10-08T01:01:13.945Z,82.30
2022-10-08T01:03:45.569Z,70.00
2022-10-08T01:06:27.737Z,71.40
2022-10-08T01:09:04.867Z,66.90
2022-10-08T01:11:49.108Z,66.60
2022-10-08T01:14:35.177Z,64.20
2022-10-08T01:17:14.447Z,64.40
2022-10-08T01:20:17.843Z,71.50
2022-10-08T01:23:09.581Z,67.70
2022-10-08T01:25:51.889Z,65.20
2022-10-08T01:28:30.751Z,63.70
2022-10-08T01:31:10.342Z,61.50
2022-10-08T01:33:47.101Z,67.10
2022-10-08T01:36:21.888Z,63.50
2022-10-08T01:38:57.454Z,69.60
2022-10-08T01:41:34.199Z,62.60
2022-10-08T01:44:10.036Z,63.20
2022-10-08T01:46:45.875Z,64.80
2022-10-08T01:49:23.172Z,60.70
2022-10-08T01:51:59.939Z,57.50
2022-10-08T01:54:34.333Z,54.70
2022-10-08T01:57:09.669Z,53.40
2022-10-08T01:59:44.422Z,52.40
2022-10-08T02:02:24.062Z,58.00
2022-10-08T02:04:57.078Z,60.50
2022-10-08T02:07:31.993Z,54.40
2022-10-08T02:10:12.323Z,50.10
2022-10-08T02:12:46.868Z,50.60
2022-10-08T02:15:22.816Z,49.80
2022-10-08T02:18:07.191Z,50.70
2022-10-08T02:20:43.936Z,45.30
2022-10-08T02:23:26.280Z,54.90
2022-10-08T02:26:00.445Z,55.90
2022-10-08T02:28:43.511Z,54.80
2022-10-08T02:31:22.619Z,49.90
2022-10-08T02:34:01.728Z,50.70
2022-10-08T02:36:36.444Z,57.20
2022-10-08T02:39:09.234Z,49.10
2022-10-08T02:41:45.134Z,54.60
2022-10-08T02:44:23.141Z,50.60
2022-10-08T02:46:58.425Z,57.80
2022-10-08T02:49:33.155Z,59.70
2022-10-08T02:52:06.535Z,56.90
2022-10-08T02:54:44.972Z,54.50
2022-10-08T02:57:23.467Z,55.50
2022-10-08T02:59:55.272Z,44.20
2022-10-08T03:02:34.808Z,45.70
2022-10-08T03:05:11.796Z,41.60
2022-10-08T03:07:43.659Z,54.80
2022-10-08T03:10:21.703Z,46.40
2022-10-08T03:12:54.119Z,45.70
2022-10-08T03:15:26.229Z,42.30
2022-10-08T03:17:59.258Z,45.90
2022-10-08T03:20:35.359Z,47.40
2022-10-08T03:23:06.920Z,44.10
2022-10-08T03:25:39.213Z,45.70
2022-10-08T03:28:10.930Z,42.90
2022-10-08T03:30:45.902Z,41.20
2022-10-08T03:33:17.546Z,49.20
2022-10-08T03:35:50.872Z,45.50
2022-10-08T03:38:22.395Z,40.80
2022-10-08T03:41:01.879Z,38.40
2022-10-08T03:43:35.172Z,40.00
2022-10-08T03:46:07.329Z,40.20
2022-10-08T03:48:39.253Z,40.10
2022-10-08T03:51:16.292Z,35.90
2022-10-08T03:53:47.922Z,33.80
2022-10-08T03:56:21.458Z,37.60
2022-10-08T03:58:56.166Z,35.70
2022-10-08T04:01:31.964Z,32.30
2022-10-08T04:04:03.822Z,33.80
2022-10-08T04:06:35.413Z,35.50
2022-10-08T04:09:06.928Z,33.80
2022-10-08T04:11:40.156Z,33.90
2022-10-08T04:14:11.878Z,36.50
2022-10-08T04:16:43.534Z,33.50
2022-10-08T04:19:17.586Z,35.80
2022-10-08T04:21:50.120Z,34.40
2022-10-08T04:24:21.680Z,31.80
2022-10-08T04:26:53.279Z,33.90
2022-10-08T04:29:24.837Z,30.60
2022-10-08T04:31:57.990Z,28.80
2022-10-08T04:34:30.030Z,37.10
2022-10-08T04:37:02.411Z,31.70
2022-10-08T04:39:33.979Z,29.30
2022-10-08T04:42:05.681Z,30.00
2022-10-08T04:44:37.177Z,32.70
2022-10-08T04:47:08.823Z,29.20
2022-10-08T04:49:40.369Z,29.90
2022-10-08T04:52:14.819Z,32.80
2022-10-08T04:54:46.337Z,36.50
2022-10-08T04:57:18.791Z,39.80
2022-10-08T05:00:13.596Z,30.90
2022-10-08T05:02:42.717Z,34.00
2022-10-08T05:05:14.866Z,33.50
2022-10-08T05:07:46.448Z,34.50
2022-10-08T05:10:23.926Z,26.90
2022-10-08T05:12:59.014Z,30.00
2022-10-08T05:15:30.846Z,25.10
2022-10-08T05:18:02.531Z,35.30
2022-10-08T05:20:36.541Z,32.30
2022-10-08T05:23:08.975Z,31.50
2022-10-08T05:25:40.571Z,34.90
2022-10-08T05:28:12.507Z,31.70
2022-10-08T05:30:44.170Z,32.70
2022-10-08T05:33:15.782Z,38.10
2022-10-08T05:35:47.341Z,26.60
2022-10-08T05:38:18.935Z,28.40
2022-10-08T05:40:50.693Z,27.60
2022-10-08T05:43:22.247Z,33.80
2022-10-08T05:45:54.697Z,32.10
2022-10-08T05:48:26.385Z,27.20
2022-10-08T05:50:57.940Z,31.90
2022-10-08T05:53:30.429Z,29.10
2022-10-08T05:56:05.790Z,27.00
2022-10-08T05:58:39.642Z,27.40
2022-10-08T06:01:14.865Z,31.40
2022-10-08T06:03:49.069Z,25.80
2022-10-08T06:06:21.625Z,28.30
2022-10-08T06:08:58.738Z,35.80
2022-10-08T06:11:31.665Z,32.00
2022-10-08T06:14:03.940Z,36.20
2022-10-08T06:16:36.641Z,38.80
2022-10-08T06:19:09.133Z,28.00
2022-10-08T06:21:40.924Z,30.70
2022-10-08T06:24:14.845Z,32.30
2022-10-08T06:26:46.515Z,32.20
2022-10-08T06:29:19.474Z,27.30
2022-10-08T06:31:51.689Z,29.10
2022-10-08T06:34:23.393Z,30.30
2022-10-08T06:36:54.900Z,35.50
2022-10-08T06:39:26.514Z,26.70
2022-10-08T06:41:58.024Z,28.70
2022-10-08T06:44:29.624Z,29.70
2022-10-08T06:47:01.303Z,32.70
2022-10-08T06:49:33.164Z,26.10
2022-10-08T06:52:04.753Z,32.00
2022-10-08T06:54:36.396Z,27.70
2022-10-08T06:57:08.028Z,28.10
2022-10-08T06:59:39.561Z,27.30
2022-10-08T07:02:11.497Z,28.80
2022-10-08T07:04:43.058Z,25.50
2022-10-08T07:07:14.817Z,27.80
2022-10-08T07:09:46.410Z,29.00
2022-10-08T07:12:17.943Z,25.30
2022-10-08T07:14:49.542Z,29.60
2022-10-08T07:17:21.125Z,31.40
2022-10-08T07:19:52.829Z,27.00
2022-10-08T07:22:25.393Z,20.90
2022-10-08T07:24:57.269Z,24.40
2022-10-08T07:27:29.019Z,25.60
2022-10-08T07:30:00.576Z,27.00
2022-10-08T07:32:32.192Z,24.60
2022-10-08T07:35:03.695Z,27.60
2022-10-08T07:37:35.212Z,22.60
2022-10-08T07:40:16.669Z,26.00
2022-10-08T07:42:52.381Z,23.30
2022-10-08T07:45:24.670Z,22.60
2022-10-08T07:47:56.184Z,19.10
2022-10-08T07:50:33.645Z,24.70
2022-10-08T07:53:05.649Z,23.20
2022-10-08T07:55:37.280Z,23.60
2022-10-08T07:58:08.848Z,21.10
2022-10-08T08:00:43.767Z,23.80
2022-10-08T08:03:16.659Z,19.40
2022-10-08T08:05:48.273Z,21.90
2022-10-08T08:08:20.006Z,18.60
2022-10-08T08:10:57.560Z,16.50
2022-10-08T08:13:35.962Z,22.20
2022-10-08T08:18:24.617Z,21.30
2022-10-08T08:21:01.895Z,16.40
2022-10-08T08:23:34.247Z,19.10
2022-10-08T08:26:07.218Z,20.40
2022-10-08T08:28:39.019Z,20.90
2022-10-08T08:31:14.114Z,25.90
2022-10-08T08:33:51.056Z,23.40
2022-10-08T08:36:25.674Z,20.80
2022-10-08T08:38:57.953Z,23.80
2022-10-08T08:41:42.632Z,18.60
2022-10-08T08:44:21.029Z,19.60
2022-10-08T08:46:57.708Z,15.90
2022-10-08T08:49:34.661Z,24.50
2022-10-08T08:52:08.038Z,18.30
2022-10-08T08:54:40.543Z,23.60
2022-10-08T08:57:27.310Z,21.20
2022-10-08T09:00:09.337Z,18.50
2022-10-08T09:02:56.856Z,22.20
2022-10-08T09:05:33.014Z,16.70
2022-10-08T09:08:09.007Z,19.00
2022-10-08T09:10:51.848Z,21.50
2022-10-08T09:13:28.098Z,17.80
2022-10-08T09:16:00.469Z,18.30
2022-10-08T09:18:34.407Z,19.60
2022-10-08T09:21:07.283Z,17.90
2022-10-08T09:23:38.822Z,19.80
2022-10-08T09:26:19.814Z,16.90
2022-10-08T09:28:53.427Z,17.00
2022-10-08T09:31:29.813Z,16.70
2022-10-08T09:34:05.855Z,17.40
2022-10-08T09:36:42.858Z,19.30
2022-10-08T09:39:21.233Z,18.80
2022-10-08T09:42:14.239Z,13.00
2022-10-08T09:44:47.142Z,19.10
2022-10-08T09:47:20.536Z,13.30
2022-10-08T09:50:12.709Z,15.40
2022-10-08T09:52:45.964Z,11.40
2022-10-08T09:55:22.304Z,15.90
2022-10-08T09:58:00.585Z,12.70
2022-10-08T10:00:35.468Z,10.50
2022-10-08T10:03:09.170Z,10.80
2022-10-08T10:05:41.095Z,13.40
2022-10-08T10:08:48.746Z,12.00
2022-10-08T10:11:26.924Z,10.40
2022-10-08T10:14:02.650Z,16.80
2022-10-08T10:16:40.268Z,12.60
2022-10-08T10:19:18.132Z,11.40
2022-10-08T10:21:56.133Z,13.80
2022-10-08T10:24:39.331Z,11.10
2022-10-08T10:27:15.382Z,13.10
2022-10-08T10:30:13.148Z,13.40
2022-10-08T10:32:50.274Z,13.90
2022-10-08T10:35:27.468Z,17.00
2022-10-08T10:38:03.732Z,13.10
2022-10-08T10:40:43.918Z,15.20
2022-10-08T10:43:28.645Z,14.80
2022-10-08T10:46:09.236Z,14.90
2022-10-08T10:48:40.948Z,12.60
2022-10-08T10:51:27.774Z,9.80
2022-10-08T10:54:12.619Z,17.20
2022-10-08T10:56:52.679Z,11.50
2022-10-08T10:59:44.923Z,14.50
2022-10-08T11:02:25.368Z,13.30
2022-10-08T11:05:07.235Z,11.30
2022-10-08T11:07:59.242Z,12.00
2022-10-08T11:10:47.668Z,13.90
2022-10-08T11:13:35.130Z,15.50
2022-10-08T11:16:19.659Z,15.70
2022-10-08T11:18:54.228Z,13.90
2022-10-08T11:21:44.795Z,15.10
2022-10-08T11:24:37.027Z,14.70
2022-10-08T11:27:18.948Z,17.10
2022-10-08T11:29:57.655Z,14.00
2022-10-08T11:32:30.425Z,14.20
2022-10-08T11:35:14.897Z,13.10
2022-10-08T11:37:51.507Z,8.60
2022-10-08T11:40:34.330Z,12.40
2022-10-08T11:43:09.818Z,16.50
2022-10-08T11:45:44.375Z,13.30
2022-10-08T11:48:36.768Z,11.70
2022-10-08T11:51:32.020Z,13.40
2022-10-08T11:54:17.054Z,13.20
2022-10-08T11:56:51.818Z,15.20
2022-10-08T11:59:35.514Z,18.20
2022-10-08T12:02:20.726Z,13.20
2022-10-08T12:04:54.608Z,13.80
2022-10-08T12:07:30.884Z,12.90
2022-10-08T12:10:31.243Z,14.40
2022-10-08T12:13:23.471Z,11.50
2022-10-08T12:16:08.230Z,11.00
2022-10-08T12:18:48.852Z,11.20
2022-10-08T12:21:54.147Z,9.00
2022-10-08T12:24:56.627Z,9.50
2022-10-08T12:27:31.073Z,11.90
2022-10-08T12:30:12.795Z,9.50
2022-10-08T12:32:57.850Z,15.60
2022-10-08T12:35:32.694Z,13.70
2022-10-08T12:38:18.838Z,10.90
2022-10-08T12:41:00.087Z,10.00
2022-10-08T12:43:44.277Z,6.30
2022-10-08T12:46:26.015Z,7.40
2022-10-08T12:49:03.512Z,10.10
2022-10-08T12:51:46.444Z,9.20
2022-10-08T12:54:26.933Z,12.10
2022-10-08T12:56:59.128Z,10.90
2022-10-08T12:59:33.232Z,13.30
2022-10-08T13:02:04.857Z,12.10
2022-10-08T13:04:37.139Z,11.50
2022-10-08T13:07:25.984Z,11.20
2022-10-08T13:09:59.227Z,8.80
2022-10-08T13:12:32.769Z,9.60
2022-10-08T13:15:09.300Z,10.90
2022-10-08T13:17:40.938Z,11.50
2022-10-08T13:20:18.709Z,12.70
2022-10-08T13:22:50.765Z,10.20
2022-10-08T13:25:48.141Z,10.90
2022-10-08T13:28:48.301Z,11.00
2022-10-08T13:31:24.798Z,12.80
2022-10-08T13:33:56.546Z,15.00
2022-10-08T13:36:28.124Z,10.90
2022-10-08T13:38:59.722Z,7.90
2022-10-08T13:41:31.301Z,10.80
2022-10-08T13:44:06.617Z,11.00
2022-10-08T13:46:38.132Z,6.70
2022-10-08T13:49:22.080Z,9.40
2022-10-08T13:51:54.673Z,11.10
2022-10-08T13:54:28.683Z,8.50
2022-10-08T13:57:00.936Z,6.90
2022-10-08T13:59:32.460Z,8.40
2022-10-08T14:02:04.132Z,12.00
2022-10-08T14:04:36.000Z,6.20
2022-10-08T14:07:17.045Z,12.30
2022-10-08T14:09:48.750Z,13.30
2022-10-08T14:12:26.329Z,7.80
2022-10-08T14:14:57.998Z,8.60
2022-10-08T14:17:29.621Z,10.70
2022-10-08T14:20:01.360Z,9.90
2022-10-08T14:22:38.824Z,7.70
2022-10-08T14:25:17.992Z,8.30
2022-10-08T14:27:49.967Z,5.90
2022-10-08T14:30:28.393Z,8.90
2022-10-08T14:32:59.985Z,5.20
2022-10-08T14:35:31.623Z,6.90
2022-10-08T14:38:03.136Z,8.60
2022-10-08T14:40:36.252Z,9.20
2022-10-08T14:43:07.770Z,7.40
2022-10-08T14:45:39.525Z,9.00
2022-10-08T14:48:12.308Z,11.70
2022-10-08T14:50:45.530Z,8.50
2022-10-08T14:53:17.087Z,6.60
2022-10-08T14:56:11.125Z,19.30
2022-10-08T14:58:41.325Z,4.80
2022-10-08T15:01:13.796Z,7.40
2022-10-08T15:03:46.040Z,11.20
2022-10-08T15:06:17.836Z,7.60
2022-10-08T15:08:49.439Z,8.10
2022-10-08T15:11:21.833Z,10.30
2022-10-08T15:13:55.484Z,10.00
2022-10-08T15:16:27.356Z,12.70
2022-10-08T15:18:58.980Z,10.60
2022-10-08T15:21:31.373Z,8.10
2022-10-08T15:24:03.390Z,7.90
2022-10-08T15:26:35.304Z,5.80
2022-10-08T15:29:07.111Z,5.50
2022-10-08T15:31:39.556Z,7.70
2022-10-08T15:34:18.832Z,10.70
2022-10-08T15:36:50.525Z,7.30
2022-10-08T15:39:22.867Z,9.20
2022-10-08T15:41:56.365Z,12.90
2022-10-08T15:44:30.123Z,11.50
2022-10-08T15:47:04.558Z,7.10
2022-10-08T15:49:38.504Z,9.40
2022-10-08T15:52:12.525Z,5.20
2022-10-08T15:54:45.184Z,8.30
2022-10-08T15:57:19.351Z,8.30
2022-10-08T15:59:51.006Z,9.30
2022-10-08T16:02:22.826Z,8.30
2022-10-08T16:04:54.444Z,9.30
2022-10-08T16:07:25.997Z,8.10
2022-10-08T16:09:57.542Z,6.50
2022-10-08T16:12:29.133Z,10.70
2022-10-08T16:15:00.822Z,10.60
2022-10-08T16:17:33.516Z,5.90
2022-10-08T16:20:05.489Z,11.70
2022-10-08T16:22:37.254Z,9.80
2022-10-08T16:25:10.940Z,9.10
2022-10-08T16:27:42.534Z,8.10
2022-10-08T16:30:16.295Z,9.70
2022-10-08T16:32:48.065Z,8.20
2022-10-08T16:35:19.845Z,19.10
2022-10-08T16:37:54.102Z,34.50
2022-10-08T16:40:25.980Z,38.40
2022-10-08T16:42:57.618Z,29.10
2022-10-08T16:45:29.140Z,22.20
2022-10-08T16:48:01.274Z,20.60
2022-10-08T16:50:33.630Z,13.20
2022-10-08T16:53:06.065Z,13.20
2022-10-08T16:55:37.984Z,10.00
2022-10-08T16:58:09.678Z,14.80
2022-10-08T17:00:41.301Z,15.80
2022-10-08T17:03:13.706Z,10.90
2022-10-08T17:05:45.294Z,17.20
2022-10-08T17:08:17.141Z,16.80
2022-10-08T17:10:48.668Z,21.80
2022-10-08T17:13:20.891Z,26.80
2022-10-08T17:16:01.613Z,25.30
2022-10-08T17:18:33.600Z,19.90
2022-10-08T17:21:06.945Z,26.10
2022-10-08T17:23:38.873Z,26.90
2022-10-08T17:26:12.560Z,30.50
2022-10-08T17:28:45.829Z,29.20
2022-10-08T17:31:19.445Z,23.20
2022-10-08T17:33:51.319Z,22.80
2022-10-08T17:36:25.459Z,18.00
2022-10-08T17:38:58.641Z,16.60
2022-10-08T17:41:31.877Z,17.10
2022-10-08T17:44:05.686Z,23.20
2022-10-08T17:46:39.433Z,12.50
2022-10-08T17:49:11.231Z,13.00
2022-10-08T17:51:43.072Z,16.80
2022-10-08T17:54:18.469Z,16.50
2022-10-08T17:56:50.628Z,15.50
2022-10-08T17:59:23.641Z,13.90
2022-10-08T18:01:55.291Z,15.30
2022-10-08T18:04:26.940Z,16.80
2022-10-08T18:07:03.150Z,19.30
2022-10-08T18:09:35.152Z,19.60
2022-10-08T18:12:07.078Z,21.40
2022-10-08T18:14:39.537Z,20.40
2022-10-08T18:17:11.124Z,13.00
2022-10-08T18:19:42.734Z,12.40
2022-10-08T18:22:14.268Z,15.40
2022-10-08T18:24:45.820Z,13.00
2022-10-08T18:27:17.454Z,11.70
2022-10-08T18:29:49.288Z,12.10
2022-10-08T18:32:20.862Z,12.40
2022-10-08T18:34:52.585Z,9.80
2022-10-08T18:37:25.357Z,12.70
2022-10-08T18:39:56.938Z,12.00
2022-10-08T18:42:28.480Z,11.30
2022-10-08T18:45:00.040Z,15.20
2022-10-08T18:47:31.760Z,11.20
2022-10-08T18:50:03.749Z,14.40
2022-10-08T18:52:35.596Z,15.40
2022-10-08T18:55:12.092Z,11.50
2022-10-08T18:57:43.595Z,10.90
2022-10-08T19:00:30.757Z,12.10
2022-10-08T19:03:02.512Z,11.20
2022-10-08T19:05:37.947Z,10.70
2022-10-08T19:08:09.669Z,12.80
2022-10-08T19:10:41.301Z,9.70
2022-10-08T19:13:13.463Z,11.50
2022-10-08T19:15:45.110Z,14.70
2022-10-08T19:18:16.678Z,11.70
2022-10-08T19:20:48.412Z,8.50
2022-10-08T19:23:19.999Z,10.90
2022-10-08T19:25:55.339Z,12.20
2022-10-08T19:28:27.168Z,12.40
2022-10-08T19:30:59.610Z,11.80
2022-10-08T19:33:31.219Z,9.70
2022-10-08T19:36:04.338Z,10.60
2022-10-08T19:38:36.272Z,14.00
2022-10-08T19:41:14.066Z,11.40
2022-10-08T19:43:45.735Z,10.30
2022-10-08T19:46:18.742Z,10.70
2022-10-08T19:48:52.605Z,10.40
2022-10-08T19:51:25.621Z,9.80
2022-10-08T19:53:58.370Z,10.50
2022-10-08T19:56:30.380Z,9.00
2022-10-08T19:59:02.138Z,13.10
2022-10-08T20:01:36.509Z,10.50
2022-10-08T20:04:10.033Z,10.70
2022-10-08T20:06:43.003Z,8.70
2022-10-08T20:09:15.735Z,9.80
2022-10-08T20:11:48.739Z,6.20
2022-10-08T20:14:20.237Z,5.90
2022-10-08T20:16:52.660Z,9.20
2022-10-08T20:19:24.734Z,10.40
2022-10-08T20:21:57.100Z,8.80
2022-10-08T20:24:29.014Z,9.10
2022-10-08T20:27:00.857Z,7.80
2022-10-08T20:29:32.696Z,8.70
2022-10-08T20:32:05.074Z,8.20
2022-10-08T20:34:36.894Z,8.20
2022-10-08T20:37:08.500Z,6.60
2022-10-08T20:39:40.037Z,5.70
2022-10-08T20:42:12.390Z,6.80
2022-10-08T20:44:43.942Z,6.00
2022-10-08T20:47:15.609Z,5.90
2022-10-08T20:49:47.165Z,9.90
2022-10-08T20:52:18.791Z,7.60
2022-10-08T20:54:50.348Z,9.10
2022-10-08T20:57:21.924Z,5.50
2022-10-08T20:59:53.456Z,7.30
2022-10-08T21:02:25.215Z,6.80
2022-10-08T21:04:56.805Z,5.90
2022-10-08T21:07:28.439Z,10.50
2022-10-08T21:10:00.027Z,6.90
2022-10-08T21:12:32.408Z,5.30
2022-10-08T21:15:04.068Z,7.80
2022-10-08T21:17:35.657Z,5.60
2022-10-08T21:20:10.846Z,8.70
2022-10-08T21:22:48.944Z,12.50
2022-10-08T21:25:20.717Z,9.30
2022-10-08T21:27:52.267Z,11.70
2022-10-08T21:30:23.779Z,12.10
2022-10-08T21:32:56.188Z,12.40
2022-10-08T21:35:27.706Z,12.50
2022-10-08T21:37:59.339Z,13.90
2022-10-08T21:40:30.885Z,12.90
2022-10-08T21:43:03.547Z,14.50
2022-10-08T21:45:35.430Z,14.50
2022-10-08T21:48:07.086Z,16.40
2022-10-08T21:50:38.645Z,18.90
2022-10-08T21:53:10.213Z,21.80
2022-10-08T21:55:41.675Z,31.10
2022-10-08T21:58:13.300Z,35.10
2022-10-08T22:00:44.946Z,35.80
2022-10-08T22:03:18.460Z,32.90
2022-10-08T22:05:54.848Z,29.20
2022-10-08T22:08:28.630Z,21.50
2022-10-08T22:11:00.784Z,22.60
2022-10-08T22:13:32.377Z,23.70
2022-10-08T22:16:05.703Z,23.30
2022-10-08T22:18:37.671Z,20.80
2022-10-08T22:21:11.006Z,26.30
2022-10-08T22:23:44.838Z,24.20
2022-10-08T22:26:18.487Z,24.60
2022-10-08T22:28:51.252Z,22.10
2022-10-08T22:31:23.152Z,32.70
2022-10-08T22:33:57.169Z,28.20
2022-10-08T22:36:31.774Z,27.20
2022-10-08T22:39:03.434Z,18.90
2022-10-08T22:41:35.605Z,15.30
2022-10-08T22:44:07.246Z,18.30
2022-10-08T22:46:40.838Z,15.60
2022-10-08T22:49:13.615Z,14.40
2022-10-08T22:51:45.172Z,14.50
2022-10-08T22:54:16.790Z,16.70
2022-10-08T22:56:48.339Z,21.20
2022-10-08T22:59:19.884Z,23.90
2022-10-08T23:02:43.894Z,19.70
2022-10-08T23:05:16.496Z,19.40
2022-10-08T23:07:49.977Z,16.90
2022-10-08T23:10:23.497Z,18.50
2022-10-08T23:12:55.817Z,21.00
2022-10-08T23:15:27.675Z,20.00
2022-10-08T23:17:59.392Z,18.60
2022-10-08T23:20:33.522Z,17.80
2022-10-08T23:23:05.339Z,20.70
2022-10-08T23:25:37.105Z,17.70
2022-10-08T23:28:08.870Z,23.90
2022-10-08T23:30:43.768Z,23.10
2022-10-08T23:33:15.652Z,17.50
2022-10-08T23:35:47.430Z,19.30
2022-10-08T23:38:19.163Z,18.00
2022-10-08T23:40:53.572Z,18.60
2022-10-08T23:43:25.393Z,17.80
2022-10-08T23:45:58.057Z,24.20
2022-10-08T23:48:29.893Z,18.80
2022-10-08T23:51:03.298Z,15.40
2022-10-08T23:53:36.892Z,15.20
2022-10-08T23:56:09.842Z,15.60
2022-10-08T23:58:42.397Z,13.00
